sensor_id;sensor_type;location;lat;lon;timestamp;temperature;humidity
7216;DHT22;3649;48.798;9.798;2023-08-06T00:01:57;20.10;99.90
7216;DHT22;3649;48.798;9.798;2023-08-06T00:04:23;20.10;99.90
7216;DHT22;3649;48.798;9.798;2023-08-06T00:06:50;20.10;99.90
7216;DHT22;3649;48.798;9.798;2023-08-06T00:09:17;20.10;99.90
7216;DHT22;3649;48.798;9.798;2023-08-06T00:11:44;20.10;99.90
7216;DHT22;3649;48.798;9.798;2023-08-06T00:14:13;20.10;99.90
7216;DHT22;3649;48.798;9.798;2023-08-06T00:16:44;20.10;99.90
7216;DHT22;3649;48.798;9.798;2023-08-06T00:19:11;20.00;99.90
7216;DHT22;3649;48.798;9.798;2023-08-06T00:21:39;20.00;99.90
7216;DHT22;3649;48.798;9.798;2023-08-06T00:24:05;20.00;99.90
7216;DHT22;3649;48.798;9.798;2023-08-06T00:26:32;20.10;99.90
7216;DHT22;3649;48.798;9.798;2023-08-06T00:28:59;20.10;99.90
7216;DHT22;3649;48.798;9.798;2023-08-06T00:31:26;20.10;99.90
7216;DHT22;3649;48.798;9.798;2023-08-06T00:33:53;20.00;99.90
7216;DHT22;3649;48.798;9.798;2023-08-06T00:36:20;20.00;99.90
7216;DHT22;3649;48.798;9.798;2023-08-06T00:38:47;20.00;99.90
7216;DHT22;3649;48.798;9.798;2023-08-06T00:41:14;20.00;99.90
7216;DHT22;3649;48.798;9.798;2023-08-06T00:43:41;20.10;99.90
7216;DHT22;3649;48.798;9.798;2023-08-06T00:46:08;20.00;99.90
7216;DHT22;3649;48.798;9.798;2023-08-06T00:48:35;19.90;99.90
7216;DHT22;3649;48.798;9.798;2023-08-06T00:51:02;19.90;99.90
7216;DHT22;3649;48.798;9.798;2023-08-06T00:53:29;20.00;99.90
7216;DHT22;3649;48.798;9.798;2023-08-06T00:55:56;20.10;99.90
7216;DHT22;3649;48.798;9.798;2023-08-06T00:58:24;20.00;99.90
7216;DHT22;3649;48.798;9.798;2023-08-06T01:00:51;20.10;99.90
7216;DHT22;3649;48.798;9.798;2023-08-06T01:03:18;20.10;99.90
7216;DHT22;3649;48.798;9.798;2023-08-06T01:05:45;20.10;99.90
7216;DHT22;3649;48.798;9.798;2023-08-06T01:08:19;20.20;99.90
7216;DHT22;3649;48.798;9.798;2023-08-06T01:13:42;20.20;99.90
7216;DHT22;3649;48.798;9.798;2023-08-06T01:16:11;20.20;99.90
7216;DHT22;3649;48.798;9.798;2023-08-06T01:18:38;20.30;99.90
7216;DHT22;3649;48.798;9.798;2023-08-06T01:21:05;20.30;99.90
7216;DHT22;3649;48.798;9.798;2023-08-06T01:23:32;20.20;99.90
7216;DHT22;3649;48.798;9.798;2023-08-06T01:26:30;20.20;99.90
7216;DHT22;3649;48.798;9.798;2023-08-06T01:31:53;20.20;99.90
7216;DHT22;3649;48.798;9.798;2023-08-06T01:34:22;20.20;99.90
7216;DHT22;3649;48.798;9.798;2023-08-06T01:36:53;20.10;99.90
7216;DHT22;3649;48.798;9.798;2023-08-06T01:39:20;20.10;99.90
7216;DHT22;3649;48.798;9.798;2023-08-06T01:41:50;20.20;99.90
7216;DHT22;3649;48.798;9.798;2023-08-06T01:44:17;20.10;99.90
7216;DHT22;3649;48.798;9.798;2023-08-06T01:46:45;20.10;99.90
7216;DHT22;3649;48.798;9.798;2023-08-06T01:49:12;20.10;99.90
7216;DHT22;3649;48.798;9.798;2023-08-06T01:51:38;20.10;99.90
7216;DHT22;3649;48.798;9.798;2023-08-06T01:54:05;20.10;99.90
7216;DHT22;3649;48.798;9.798;2023-08-06T01:56:32;20.10;99.90
7216;DHT22;3649;48.798;9.798;2023-08-06T01:58:59;20.00;99.90
7216;DHT22;3649;48.798;9.798;2023-08-06T02:01:30;20.00;99.90
7216;DHT22;3649;48.798;9.798;2023-08-06T02:03:57;20.00;99.90
7216;DHT22;3649;48.798;9.798;2023-08-06T02:06:24;20.00;99.90
7216;DHT22;3649;48.798;9.798;2023-08-06T02:08:51;19.90;99.90
7216;DHT22;3649;48.798;9.798;2023-08-06T02:11:17;20.00;99.90
7216;DHT22;3649;48.798;9.798;2023-08-06T02:13:46;20.00;99.90
7216;DHT22;3649;48.798;9.798;2023-08-06T02:16:13;20.00;99.90
7216;DHT22;3649;48.798;9.798;2023-08-06T02:18:40;20.00;99.90
7216;DHT22;3649;48.798;9.798;2023-08-06T02:21:07;20.00;99.90
7216;DHT22;3649;48.798;9.798;2023-08-06T02:23:33;19.90;99.90
7216;DHT22;3649;48.798;9.798;2023-08-06T02:26:01;19.80;99.90
7216;DHT22;3649;48.798;9.798;2023-08-06T02:28:31;19.80;99.90
7216;DHT22;3649;48.798;9.798;2023-08-06T02:30:58;19.80;99.90
7216;DHT22;3649;48.798;9.798;2023-08-06T02:33:25;19.90;99.90
7216;DHT22;3649;48.798;9.798;2023-08-06T02:35:59;19.90;99.90
7216;DHT22;3649;48.798;9.798;2023-08-06T02:38:27;19.90;99.90
7216;DHT22;3649;48.798;9.798;2023-08-06T02:40:54;19.90;99.90
7216;DHT22;3649;48.798;9.798;2023-08-06T02:43:21;20.00;99.90
7216;DHT22;3649;48.798;9.798;2023-08-06T02:45:47;20.00;99.90
7216;DHT22;3649;48.798;9.798;2023-08-06T02:48:14;20.00;99.90
7216;DHT22;3649;48.798;9.798;2023-08-06T02:50:41;20.00;99.90
7216;DHT22;3649;48.798;9.798;2023-08-06T02:53:08;19.90;99.90
7216;DHT22;3649;48.798;9.798;2023-08-06T02:55:36;19.90;99.90
7216;DHT22;3649;48.798;9.798;2023-08-06T02:58:03;19.90;99.90
7216;DHT22;3649;48.798;9.798;2023-08-06T03:00:30;19.80;99.90
7216;DHT22;3649;48.798;9.798;2023-08-06T03:02:57;19.90;99.90
7216;DHT22;3649;48.798;9.798;2023-08-06T03:05:24;19.80;99.90
7216;DHT22;3649;48.798;9.798;2023-08-06T03:07:51;19.80;99.90
7216;DHT22;3649;48.798;9.798;2023-08-06T03:10:18;19.80;99.90
7216;DHT22;3649;48.798;9.798;2023-08-06T03:12:44;19.80;99.90
7216;DHT22;3649;48.798;9.798;2023-08-06T03:15:11;19.90;99.90
7216;DHT22;3649;48.798;9.798;2023-08-06T03:17:38;19.90;99.90
7216;DHT22;3649;48.798;9.798;2023-08-06T03:20:06;19.90;99.90
7216;DHT22;3649;48.798;9.798;2023-08-06T03:22:33;19.90;99.90
7216;DHT22;3649;48.798;9.798;2023-08-06T03:25:00;19.90;99.90
7216;DHT22;3649;48.798;9.798;2023-08-06T03:27:27;19.90;99.90
7216;DHT22;3649;48.798;9.798;2023-08-06T03:29:53;19.90;99.90
7216;DHT22;3649;48.798;9.798;2023-08-06T03:32:21;19.90;99.90
7216;DHT22;3649;48.798;9.798;2023-08-06T03:34:47;19.90;99.90
7216;DHT22;3649;48.798;9.798;2023-08-06T03:37:14;19.90;99.90
7216;DHT22;3649;48.798;9.798;2023-08-06T03:39:41;19.90;99.90
7216;DHT22;3649;48.798;9.798;2023-08-06T03:42:08;19.90;99.90
7216;DHT22;3649;48.798;9.798;2023-08-06T03:44:35;19.90;99.90
7216;DHT22;3649;48.798;9.798;2023-08-06T03:47:02;20.00;99.90
7216;DHT22;3649;48.798;9.798;2023-08-06T03:49:29;20.10;99.90
7216;DHT22;3649;48.798;9.798;2023-08-06T03:51:55;20.10;99.90
7216;DHT22;3649;48.798;9.798;2023-08-06T03:54:22;20.00;99.90
7216;DHT22;3649;48.798;9.798;2023-08-06T03:56:49;20.00;99.90
7216;DHT22;3649;48.798;9.798;2023-08-06T03:59:16;20.00;99.90
7216;DHT22;3649;48.798;9.798;2023-08-06T04:01:43;19.90;99.90
7216;DHT22;3649;48.798;9.798;2023-08-06T04:04:09;19.90;99.90
7216;DHT22;3649;48.798;9.798;2023-08-06T04:06:36;19.80;99.90
7216;DHT22;3649;48.798;9.798;2023-08-06T04:09:03;19.80;99.90
7216;DHT22;3649;48.798;9.798;2023-08-06T04:11:30;19.80;99.90
7216;DHT22;3649;48.798;9.798;2023-08-06T04:13:57;19.80;99.90
7216;DHT22;3649;48.798;9.798;2023-08-06T04:16:24;19.80;99.90
7216;DHT22;3649;48.798;9.798;2023-08-06T04:18:53;18.30;99.90
7216;DHT22;3649;48.798;9.798;2023-08-06T04:21:22;19.80;99.90
7216;DHT22;3649;48.798;9.798;2023-08-06T04:23:49;19.70;99.90
7216;DHT22;3649;48.798;9.798;2023-08-06T04:26:15;19.70;99.90
7216;DHT22;3649;48.798;9.798;2023-08-06T04:28:42;19.80;99.90
7216;DHT22;3649;48.798;9.798;2023-08-06T04:31:09;19.90;99.90
7216;DHT22;3649;48.798;9.798;2023-08-06T04:33:36;20.00;99.90
7216;DHT22;3649;48.798;9.798;2023-08-06T04:36:03;20.00;99.90
7216;DHT22;3649;48.798;9.798;2023-08-06T04:38:30;19.80;99.90
7216;DHT22;3649;48.798;9.798;2023-08-06T04:40:58;19.80;99.90
7216;DHT22;3649;48.798;9.798;2023-08-06T04:43:24;19.70;99.90
7216;DHT22;3649;48.798;9.798;2023-08-06T04:45:54;19.70;99.90
7216;DHT22;3649;48.798;9.798;2023-08-06T04:48:21;19.60;99.90
7216;DHT22;3649;48.798;9.798;2023-08-06T04:50:49;19.70;99.90
7216;DHT22;3649;48.798;9.798;2023-08-06T04:53:16;19.70;99.90
7216;DHT22;3649;48.798;9.798;2023-08-06T04:55:43;19.70;99.90
7216;DHT22;3649;48.798;9.798;2023-08-06T04:58:10;19.80;99.90
7216;DHT22;3649;48.798;9.798;2023-08-06T05:00:37;19.80;99.90
7216;DHT22;3649;48.798;9.798;2023-08-06T05:03:05;19.70;99.90
7216;DHT22;3649;48.798;9.798;2023-08-06T05:05:32;19.60;99.90
7216;DHT22;3649;48.798;9.798;2023-08-06T05:07:59;19.60;99.90
7216;DHT22;3649;48.798;9.798;2023-08-06T05:10:27;19.60;99.90
7216;DHT22;3649;48.798;9.798;2023-08-06T05:12:54;19.60;99.90
7216;DHT22;3649;48.798;9.798;2023-08-06T05:15:21;19.70;99.90
7216;DHT22;3649;48.798;9.798;2023-08-06T05:17:48;19.70;99.90
7216;DHT22;3649;48.798;9.798;2023-08-06T05:20:15;19.60;99.90
7216;DHT22;3649;48.798;9.798;2023-08-06T05:22:43;19.60;99.90
7216;DHT22;3649;48.798;9.798;2023-08-06T05:25:13;19.60;99.90
7216;DHT22;3649;48.798;9.798;2023-08-06T05:27:41;19.60;99.90
7216;DHT22;3649;48.798;9.798;2023-08-06T05:30:09;19.60;99.90
7216;DHT22;3649;48.798;9.798;2023-08-06T05:32:36;19.50;99.90
7216;DHT22;3649;48.798;9.798;2023-08-06T05:35:03;19.50;99.90
7216;DHT22;3649;48.798;9.798;2023-08-06T05:37:30;19.30;99.90
7216;DHT22;3649;48.798;9.798;2023-08-06T05:39:57;19.40;99.90
7216;DHT22;3649;48.798;9.798;2023-08-06T05:42:24;19.30;99.90
7216;DHT22;3649;48.798;9.798;2023-08-06T05:44:52;19.30;99.90
7216;DHT22;3649;48.798;9.798;2023-08-06T05:47:22;19.30;99.90
7216;DHT22;3649;48.798;9.798;2023-08-06T05:49:49;19.30;99.90
7216;DHT22;3649;48.798;9.798;2023-08-06T05:52:16;19.30;99.90
7216;DHT22;3649;48.798;9.798;2023-08-06T05:54:43;19.20;99.90
7216;DHT22;3649;48.798;9.798;2023-08-06T05:57:11;19.20;99.90
7216;DHT22;3649;48.798;9.798;2023-08-06T05:59:49;19.30;99.90
7216;DHT22;3649;48.798;9.798;2023-08-06T06:02:16;19.30;99.90
7216;DHT22;3649;48.798;9.798;2023-08-06T06:04:45;19.30;99.90
7216;DHT22;3649;48.798;9.798;2023-08-06T06:07:13;19.30;99.90
7216;DHT22;3649;48.798;9.798;2023-08-06T06:09:41;19.20;99.90
7216;DHT22;3649;48.798;9.798;2023-08-06T06:12:08;19.30;99.90
7216;DHT22;3649;48.798;9.798;2023-08-06T06:14:34;19.30;99.90
7216;DHT22;3649;48.798;9.798;2023-08-06T06:17:01;19.30;99.90
7216;DHT22;3649;48.798;9.798;2023-08-06T06:19:28;19.30;99.90
7216;DHT22;3649;48.798;9.798;2023-08-06T06:21:55;19.30;99.90
7216;DHT22;3649;48.798;9.798;2023-08-06T06:24:24;19.30;99.90
7216;DHT22;3649;48.798;9.798;2023-08-06T06:26:51;19.30;99.90
7216;DHT22;3649;48.798;9.798;2023-08-06T06:29:18;19.40;99.90
7216;DHT22;3649;48.798;9.798;2023-08-06T06:31:45;19.40;99.90
7216;DHT22;3649;48.798;9.798;2023-08-06T06:34:12;19.40;99.90
7216;DHT22;3649;48.798;9.798;2023-08-06T06:36:39;19.50;99.90
7216;DHT22;3649;48.798;9.798;2023-08-06T06:39:06;19.40;99.90
7216;DHT22;3649;48.798;9.798;2023-08-06T06:41:33;19.40;99.90
7216;DHT22;3649;48.798;9.798;2023-08-06T06:44:00;19.40;99.90
7216;DHT22;3649;48.798;9.798;2023-08-06T06:46:26;19.50;99.90
7216;DHT22;3649;48.798;9.798;2023-08-06T06:48:54;19.50;99.90
7216;DHT22;3649;48.798;9.798;2023-08-06T06:51:22;19.50;99.90
7216;DHT22;3649;48.798;9.798;2023-08-06T06:53:49;19.60;99.90
7216;DHT22;3649;48.798;9.798;2023-08-06T06:56:15;19.50;99.90
7216;DHT22;3649;48.798;9.798;2023-08-06T06:58:42;19.50;99.90
7216;DHT22;3649;48.798;9.798;2023-08-06T07:01:09;19.50;99.90
7216;DHT22;3649;48.798;9.798;2023-08-06T07:03:38;19.60;99.90
7216;DHT22;3649;48.798;9.798;2023-08-06T07:06:05;19.60;99.90
7216;DHT22;3649;48.798;9.798;2023-08-06T07:08:33;19.60;99.90
7216;DHT22;3649;48.798;9.798;2023-08-06T07:11:04;19.60;99.90
7216;DHT22;3649;48.798;9.798;2023-08-06T07:13:33;19.60;99.90
7216;DHT22;3649;48.798;9.798;2023-08-06T07:16:01;19.40;99.90
7216;DHT22;3649;48.798;9.798;2023-08-06T07:18:28;19.30;99.90
7216;DHT22;3649;48.798;9.798;2023-08-06T07:20:55;19.40;99.90
7216;DHT22;3649;48.798;9.798;2023-08-06T07:23:24;19.40;99.90
7216;DHT22;3649;48.798;9.798;2023-08-06T07:25:51;19.30;99.90
7216;DHT22;3649;48.798;9.798;2023-08-06T07:28:18;19.30;99.90
7216;DHT22;3649;48.798;9.798;2023-08-06T07:30:45;19.30;99.90
7216;DHT22;3649;48.798;9.798;2023-08-06T07:33:12;19.20;99.90
7216;DHT22;3649;48.798;9.798;2023-08-06T07:35:39;19.20;99.90
7216;DHT22;3649;48.798;9.798;2023-08-06T07:38:06;19.30;99.90
7216;DHT22;3649;48.798;9.798;2023-08-06T07:40:35;19.30;99.90
7216;DHT22;3649;48.798;9.798;2023-08-06T07:43:03;19.30;99.90
7216;DHT22;3649;48.798;9.798;2023-08-06T07:45:36;19.40;99.90
7216;DHT22;3649;48.798;9.798;2023-08-06T07:48:03;19.30;99.90
7216;DHT22;3649;48.798;9.798;2023-08-06T07:50:31;19.30;99.90
7216;DHT22;3649;48.798;9.798;2023-08-06T07:52:58;19.30;99.90
7216;DHT22;3649;48.798;9.798;2023-08-06T07:55:25;19.30;99.90
7216;DHT22;3649;48.798;9.798;2023-08-06T07:57:53;19.20;99.90
7216;DHT22;3649;48.798;9.798;2023-08-06T08:00:20;19.30;99.90
7216;DHT22;3649;48.798;9.798;2023-08-06T08:02:47;19.20;99.90
7216;DHT22;3649;48.798;9.798;2023-08-06T08:05:14;19.10;99.90
7216;DHT22;3649;48.798;9.798;2023-08-06T08:07:41;19.10;99.90
7216;DHT22;3649;48.798;9.798;2023-08-06T08:10:08;19.10;99.90
7216;DHT22;3649;48.798;9.798;2023-08-06T08:12:35;19.20;99.90
7216;DHT22;3649;48.798;9.798;2023-08-06T08:15:02;19.10;99.90
7216;DHT22;3649;48.798;9.798;2023-08-06T08:17:29;18.90;99.90
7216;DHT22;3649;48.798;9.798;2023-08-06T08:19:56;19.00;99.90
7216;DHT22;3649;48.798;9.798;2023-08-06T08:22:23;18.80;99.90
7216;DHT22;3649;48.798;9.798;2023-08-06T08:24:50;18.80;99.90
7216;DHT22;3649;48.798;9.798;2023-08-06T08:27:17;18.80;99.90
7216;DHT22;3649;48.798;9.798;2023-08-06T08:29:44;18.70;99.90
7216;DHT22;3649;48.798;9.798;2023-08-06T08:32:11;18.70;99.90
7216;DHT22;3649;48.798;9.798;2023-08-06T08:34:38;19.10;99.90
7216;DHT22;3649;48.798;9.798;2023-08-06T08:37:05;18.70;99.90
7216;DHT22;3649;48.798;9.798;2023-08-06T08:39:32;18.70;99.90
7216;DHT22;3649;48.798;9.798;2023-08-06T08:41:59;18.80;99.90
7216;DHT22;3649;48.798;9.798;2023-08-06T08:44:28;18.90;99.90
7216;DHT22;3649;48.798;9.798;2023-08-06T08:46:56;19.00;99.90
7216;DHT22;3649;48.798;9.798;2023-08-06T08:49:24;19.00;99.90
7216;DHT22;3649;48.798;9.798;2023-08-06T08:51:53;19.00;99.90
7216;DHT22;3649;48.798;9.798;2023-08-06T08:54:23;19.10;99.90
7216;DHT22;3649;48.798;9.798;2023-08-06T08:56:50;19.20;99.90
7216;DHT22;3649;48.798;9.798;2023-08-06T08:59:17;19.20;99.90
7216;DHT22;3649;48.798;9.798;2023-08-06T09:01:47;19.20;99.90
7216;DHT22;3649;48.798;9.798;2023-08-06T09:04:18;19.20;99.90
7216;DHT22;3649;48.798;9.798;2023-08-06T09:06:48;19.30;99.90
7216;DHT22;3649;48.798;9.798;2023-08-06T09:09:26;19.30;99.90
7216;DHT22;3649;48.798;9.798;2023-08-06T09:11:55;19.30;99.90
7216;DHT22;3649;48.798;9.798;2023-08-06T09:14:26;19.30;99.90
7216;DHT22;3649;48.798;9.798;2023-08-06T09:16:54;19.40;99.90
7216;DHT22;3649;48.798;9.798;2023-08-06T09:19:21;19.40;99.90
7216;DHT22;3649;48.798;9.798;2023-08-06T09:21:51;19.40;99.90
7216;DHT22;3649;48.798;9.798;2023-08-06T09:24:18;19.40;99.90
7216;DHT22;3649;48.798;9.798;2023-08-06T09:26:45;19.40;99.90
7216;DHT22;3649;48.798;9.798;2023-08-06T09:29:12;19.40;99.90
7216;DHT22;3649;48.798;9.798;2023-08-06T09:31:44;19.30;99.90
7216;DHT22;3649;48.798;9.798;2023-08-06T09:34:22;19.40;99.90
7216;DHT22;3649;48.798;9.798;2023-08-06T09:36:51;19.30;99.90
7216;DHT22;3649;48.798;9.798;2023-08-06T09:39:20;19.30;99.90
7216;DHT22;3649;48.798;9.798;2023-08-06T09:41:48;19.40;99.90
7216;DHT22;3649;48.798;9.798;2023-08-06T09:44:19;19.40;99.90
7216;DHT22;3649;48.798;9.798;2023-08-06T09:47:00;19.30;99.90
7216;DHT22;3649;48.798;9.798;2023-08-06T09:52:00;19.20;99.90
7216;DHT22;3649;48.798;9.798;2023-08-06T09:54:28;19.10;99.90
7216;DHT22;3649;48.798;9.798;2023-08-06T09:56:56;19.10;99.90
7216;DHT22;3649;48.798;9.798;2023-08-06T09:59:24;19.10;99.90
7216;DHT22;3649;48.798;9.798;2023-08-06T10:01:51;19.10;99.90
7216;DHT22;3649;48.798;9.798;2023-08-06T10:04:20;19.10;99.90
7216;DHT22;3649;48.798;9.798;2023-08-06T10:06:52;19.20;99.90
7216;DHT22;3649;48.798;9.798;2023-08-06T10:09:19;19.10;99.90
7216;DHT22;3649;48.798;9.798;2023-08-06T10:11:51;19.20;99.90
7216;DHT22;3649;48.798;9.798;2023-08-06T10:14:24;19.20;99.90
7216;DHT22;3649;48.798;9.798;2023-08-06T10:16:53;19.10;99.90
7216;DHT22;3649;48.798;9.798;2023-08-06T10:19:21;19.10;99.90
7216;DHT22;3649;48.798;9.798;2023-08-06T10:22:08;19.10;99.90
7216;DHT22;3649;48.798;9.798;2023-08-06T10:24:52;19.10;99.90
7216;DHT22;3649;48.798;9.798;2023-08-06T10:27:28;19.10;99.90
7216;DHT22;3649;48.798;9.798;2023-08-06T10:29:56;19.20;99.90
7216;DHT22;3649;48.798;9.798;2023-08-06T10:32:47;19.30;99.90
7216;DHT22;3649;48.798;9.798;2023-08-06T10:35:31;19.30;99.90
7216;DHT22;3649;48.798;9.798;2023-08-06T10:38:08;19.30;99.90
7216;DHT22;3649;48.798;9.798;2023-08-06T10:40:40;19.30;99.90
7216;DHT22;3649;48.798;9.798;2023-08-06T10:43:07;19.30;99.90
7216;DHT22;3649;48.798;9.798;2023-08-06T10:45:36;19.30;99.90
7216;DHT22;3649;48.798;9.798;2023-08-06T10:48:04;19.30;99.90
7216;DHT22;3649;48.798;9.798;2023-08-06T10:50:32;18.30;99.90
7216;DHT22;3649;48.798;9.798;2023-08-06T10:53:04;19.20;99.90
7216;DHT22;3649;48.798;9.798;2023-08-06T10:55:31;19.20;99.90
7216;DHT22;3649;48.798;9.798;2023-08-06T10:57:58;19.10;99.90
7216;DHT22;3649;48.798;9.798;2023-08-06T11:00:28;19.00;99.90
7216;DHT22;3649;48.798;9.798;2023-08-06T11:02:55;18.90;99.90
7216;DHT22;3649;48.798;9.798;2023-08-06T11:05:22;18.80;99.90
7216;DHT22;3649;48.798;9.798;2023-08-06T11:07:49;18.70;99.90
7216;DHT22;3649;48.798;9.798;2023-08-06T11:10:18;18.60;99.90
7216;DHT22;3649;48.798;9.798;2023-08-06T11:12:44;18.50;99.90
7216;DHT22;3649;48.798;9.798;2023-08-06T11:15:11;18.40;99.90
7216;DHT22;3649;48.798;9.798;2023-08-06T11:17:40;18.40;99.90
7216;DHT22;3649;48.798;9.798;2023-08-06T11:20:07;18.50;99.90
7216;DHT22;3649;48.798;9.798;2023-08-06T11:22:36;18.50;99.90
7216;DHT22;3649;48.798;9.798;2023-08-06T11:25:03;18.60;99.90
7216;DHT22;3649;48.798;9.798;2023-08-06T11:27:30;18.60;99.90
7216;DHT22;3649;48.798;9.798;2023-08-06T11:29:57;18.80;99.90
7216;DHT22;3649;48.798;9.798;2023-08-06T11:32:24;18.90;99.90
7216;DHT22;3649;48.798;9.798;2023-08-06T11:34:53;18.80;99.90
7216;DHT22;3649;48.798;9.798;2023-08-06T11:37:22;18.90;99.90
7216;DHT22;3649;48.798;9.798;2023-08-06T11:39:52;19.00;99.90
7216;DHT22;3649;48.798;9.798;2023-08-06T11:42:19;19.00;99.90
7216;DHT22;3649;48.798;9.798;2023-08-06T11:44:46;19.10;99.90
7216;DHT22;3649;48.798;9.798;2023-08-06T11:47:15;19.10;99.90
7216;DHT22;3649;48.798;9.798;2023-08-06T11:49:49;19.10;99.90
7216;DHT22;3649;48.798;9.798;2023-08-06T11:55:03;18.90;99.90
7216;DHT22;3649;48.798;9.798;2023-08-06T11:57:30;18.90;99.90
7216;DHT22;3649;48.798;9.798;2023-08-06T12:00:12;18.90;99.90
7216;DHT22;3649;48.798;9.798;2023-08-06T12:02:40;18.90;99.90
7216;DHT22;3649;48.798;9.798;2023-08-06T12:05:15;19.00;99.90
7216;DHT22;3649;48.798;9.798;2023-08-06T12:07:45;18.90;99.90
7216;DHT22;3649;48.798;9.798;2023-08-06T12:10:13;19.00;99.90
7216;DHT22;3649;48.798;9.798;2023-08-06T12:12:40;19.00;99.90
7216;DHT22;3649;48.798;9.798;2023-08-06T12:15:09;19.00;99.90
7216;DHT22;3649;48.798;9.798;2023-08-06T12:17:36;19.00;99.90
7216;DHT22;3649;48.798;9.798;2023-08-06T12:20:05;19.10;99.90
7216;DHT22;3649;48.798;9.798;2023-08-06T12:22:33;19.10;99.90
7216;DHT22;3649;48.798;9.798;2023-08-06T12:25:05;19.10;99.90
7216;DHT22;3649;48.798;9.798;2023-08-06T12:27:35;19.20;99.90
7216;DHT22;3649;48.798;9.798;2023-08-06T12:30:03;19.10;99.90
7216;DHT22;3649;48.798;9.798;2023-08-06T12:32:30;19.00;99.90
7216;DHT22;3649;48.798;9.798;2023-08-06T12:34:58;18.90;99.90
7216;DHT22;3649;48.798;9.798;2023-08-06T12:37:25;18.70;99.90
7216;DHT22;3649;48.798;9.798;2023-08-06T12:39:52;18.60;99.90
7216;DHT22;3649;48.798;9.798;2023-08-06T12:42:19;18.50;99.90
7216;DHT22;3649;48.798;9.798;2023-08-06T12:44:48;18.30;99.90
7216;DHT22;3649;48.798;9.798;2023-08-06T12:47:16;18.20;99.90
7216;DHT22;3649;48.798;9.798;2023-08-06T12:49:43;18.10;99.90
7216;DHT22;3649;48.798;9.798;2023-08-06T12:52:10;18.10;99.90
7216;DHT22;3649;48.798;9.798;2023-08-06T12:54:39;18.10;99.90
7216;DHT22;3649;48.798;9.798;2023-08-06T12:57:06;18.10;99.90
7216;DHT22;3649;48.798;9.798;2023-08-06T12:59:33;18.00;99.90
7216;DHT22;3649;48.798;9.798;2023-08-06T13:02:00;18.00;99.90
7216;DHT22;3649;48.798;9.798;2023-08-06T13:04:27;18.00;99.90
7216;DHT22;3649;48.798;9.798;2023-08-06T13:06:55;17.90;99.90
7216;DHT22;3649;48.798;9.798;2023-08-06T13:09:21;17.90;99.90
7216;DHT22;3649;48.798;9.798;2023-08-06T13:11:48;17.90;99.90
7216;DHT22;3649;48.798;9.798;2023-08-06T13:14:17;17.90;99.90
7216;DHT22;3649;48.798;9.798;2023-08-06T13:16:44;17.90;99.90
7216;DHT22;3649;48.798;9.798;2023-08-06T13:19:12;18.00;99.90
7216;DHT22;3649;48.798;9.798;2023-08-06T13:24:08;18.10;99.90
7216;DHT22;3649;48.798;9.798;2023-08-06T13:26:36;18.00;99.90
7216;DHT22;3649;48.798;9.798;2023-08-06T13:29:02;18.00;99.90
7216;DHT22;3649;48.798;9.798;2023-08-06T13:31:29;18.00;99.90
7216;DHT22;3649;48.798;9.798;2023-08-06T13:33:57;18.10;99.90
7216;DHT22;3649;48.798;9.798;2023-08-06T13:36:27;18.10;99.90
7216;DHT22;3649;48.798;9.798;2023-08-06T13:38:54;18.10;99.90
7216;DHT22;3649;48.798;9.798;2023-08-06T13:41:22;18.10;99.90
7216;DHT22;3649;48.798;9.798;2023-08-06T13:43:49;18.10;99.90
7216;DHT22;3649;48.798;9.798;2023-08-06T13:46:18;18.20;99.90
7216;DHT22;3649;48.798;9.798;2023-08-06T13:48:48;18.10;99.90
7216;DHT22;3649;48.798;9.798;2023-08-06T13:51:18;18.20;99.90
7216;DHT22;3649;48.798;9.798;2023-08-06T13:53:45;18.30;99.90
7216;DHT22;3649;48.798;9.798;2023-08-06T13:56:12;18.20;99.90
7216;DHT22;3649;48.798;9.798;2023-08-06T13:58:41;18.30;99.90
7216;DHT22;3649;48.798;9.798;2023-08-06T14:01:10;18.40;99.90
7216;DHT22;3649;48.798;9.798;2023-08-06T14:03:38;18.50;99.90
7216;DHT22;3649;48.798;9.798;2023-08-06T14:06:04;18.50;99.90
7216;DHT22;3649;48.798;9.798;2023-08-06T14:08:31;18.60;99.90
7216;DHT22;3649;48.798;9.798;2023-08-06T14:10:58;18.60;99.90
7216;DHT22;3649;48.798;9.798;2023-08-06T14:13:25;18.70;99.90
7216;DHT22;3649;48.798;9.798;2023-08-06T14:15:52;18.70;99.90
7216;DHT22;3649;48.798;9.798;2023-08-06T14:18:19;18.70;99.90
7216;DHT22;3649;48.798;9.798;2023-08-06T14:20:46;18.70;99.90
7216;DHT22;3649;48.798;9.798;2023-08-06T14:23:13;18.70;99.90
7216;DHT22;3649;48.798;9.798;2023-08-06T14:25:40;18.80;99.90
7216;DHT22;3649;48.798;9.798;2023-08-06T14:28:07;18.80;99.90
7216;DHT22;3649;48.798;9.798;2023-08-06T14:30:34;18.80;99.90
7216;DHT22;3649;48.798;9.798;2023-08-06T14:33:02;18.90;99.90
7216;DHT22;3649;48.798;9.798;2023-08-06T14:35:49;18.80;99.90
7216;DHT22;3649;48.798;9.798;2023-08-06T14:38:16;18.90;99.90
7216;DHT22;3649;48.798;9.798;2023-08-06T14:40:44;18.90;99.90
7216;DHT22;3649;48.798;9.798;2023-08-06T14:43:10;18.90;99.90
7216;DHT22;3649;48.798;9.798;2023-08-06T14:45:41;18.90;99.90
7216;DHT22;3649;48.798;9.798;2023-08-06T14:48:08;18.80;99.90
7216;DHT22;3649;48.798;9.798;2023-08-06T14:50:35;18.80;99.90
7216;DHT22;3649;48.798;9.798;2023-08-06T14:53:02;18.50;99.90
7216;DHT22;3649;48.798;9.798;2023-08-06T14:55:31;18.30;99.90
7216;DHT22;3649;48.798;9.798;2023-08-06T14:58:00;18.20;99.90
7216;DHT22;3649;48.798;9.798;2023-08-06T15:00:27;18.20;99.90
7216;DHT22;3649;48.798;9.798;2023-08-06T15:02:54;18.10;99.90
7216;DHT22;3649;48.798;9.798;2023-08-06T15:05:21;18.10;99.90
7216;DHT22;3649;48.798;9.798;2023-08-06T15:07:49;18.10;99.90
7216;DHT22;3649;48.798;9.798;2023-08-06T15:10:16;18.20;99.90
7216;DHT22;3649;48.798;9.798;2023-08-06T15:12:53;18.20;99.90
7216;DHT22;3649;48.798;9.798;2023-08-06T15:15:20;18.20;99.90
7216;DHT22;3649;48.798;9.798;2023-08-06T15:17:47;18.10;99.90
7216;DHT22;3649;48.798;9.798;2023-08-06T15:20:14;18.10;99.90
7216;DHT22;3649;48.798;9.798;2023-08-06T15:22:41;18.20;99.90
7216;DHT22;3649;48.798;9.798;2023-08-06T15:25:08;18.20;99.90
7216;DHT22;3649;48.798;9.798;2023-08-06T15:27:35;18.20;99.90
7216;DHT22;3649;48.798;9.798;2023-08-06T15:30:05;18.30;99.90
7216;DHT22;3649;48.798;9.798;2023-08-06T15:32:32;18.40;99.90
7216;DHT22;3649;48.798;9.798;2023-08-06T15:34:59;18.40;99.90
7216;DHT22;3649;48.798;9.798;2023-08-06T15:37:26;18.40;99.90
7216;DHT22;3649;48.798;9.798;2023-08-06T15:39:53;18.30;99.90
7216;DHT22;3649;48.798;9.798;2023-08-06T15:42:20;18.30;99.90
7216;DHT22;3649;48.798;9.798;2023-08-06T15:44:47;18.40;99.90
7216;DHT22;3649;48.798;9.798;2023-08-06T15:47:14;18.30;99.90
7216;DHT22;3649;48.798;9.798;2023-08-06T15:49:41;18.40;99.90
7216;DHT22;3649;48.798;9.798;2023-08-06T15:52:08;18.40;99.90
7216;DHT22;3649;48.798;9.798;2023-08-06T15:54:35;18.40;99.90
7216;DHT22;3649;48.798;9.798;2023-08-06T15:57:02;18.30;99.90
7216;DHT22;3649;48.798;9.798;2023-08-06T15:59:31;18.20;99.90
7216;DHT22;3649;48.798;9.798;2023-08-06T16:02:00;18.20;99.90
7216;DHT22;3649;48.798;9.798;2023-08-06T16:04:30;18.20;99.90
7216;DHT22;3649;48.798;9.798;2023-08-06T16:06:58;18.20;99.90
7216;DHT22;3649;48.798;9.798;2023-08-06T16:09:26;18.30;99.90
7216;DHT22;3649;48.798;9.798;2023-08-06T16:11:53;18.30;99.90
7216;DHT22;3649;48.798;9.798;2023-08-06T16:14:21;18.40;99.90
7216;DHT22;3649;48.798;9.798;2023-08-06T16:16:48;18.40;99.90
7216;DHT22;3649;48.798;9.798;2023-08-06T16:19:15;18.50;99.90
7216;DHT22;3649;48.798;9.798;2023-08-06T16:21:42;18.50;99.90